createdAt,value
2022-11-05T00:00:38.103Z,7.32
2022-11-05T00:03:23.762Z,7.28
2022-11-05T00:06:12.368Z,7.13
2022-11-05T00:08:59.199Z,7.38
2022-11-05T00:14:32.958Z,7.32
2022-11-05T00:17:00.318Z,6.95
2022-11-05T00:19:27.131Z,6.90
2022-11-05T00:22:12.860Z,7.40
2022-11-05T00:24:58.174Z,6.72
2022-11-05T00:27:25.382Z,6.93
2022-11-05T00:29:52.228Z,6.65
2022-11-05T00:32:19.253Z,6.85
2022-11-05T00:34:46.317Z,5.85
2022-11-05T00:37:13.232Z,6.35
2022-11-05T00:39:40.050Z,6.18
2022-11-05T00:42:25.683Z,5.43
2022-11-05T00:45:01.557Z,6.38
2022-11-05T00:47:51.551Z,5.38
2022-11-05T00:50:22.677Z,4.68
2022-11-05T00:52:58.222Z,5.05
2022-11-05T00:55:40.916Z,4.57
2022-11-05T00:58:13.508Z,4.30
2022-11-05T01:00:48.199Z,4.63
2022-11-05T01:03:18.431Z,4.95
2022-11-05T01:05:58.648Z,4.68
2022-11-05T01:08:27.683Z,5.30
2022-11-05T01:10:57.234Z,3.97
2022-11-05T01:13:31.415Z,3.80
2022-11-05T01:15:58.360Z,5.63
2022-11-05T01:18:25.278Z,4.18
2022-11-05T01:20:52.550Z,4.18
2022-11-05T01:23:19.874Z,4.45
2022-11-05T01:25:47.250Z,4.53
2022-11-05T01:28:14.147Z,4.03
2022-11-05T01:30:41.082Z,4.45
2022-11-05T01:33:08.158Z,4.90
2022-11-05T01:35:35.974Z,4.63
2022-11-05T01:38:02.815Z,4.25
2022-11-05T01:40:29.980Z,5.15
2022-11-05T01:42:57.026Z,4.20
2022-11-05T01:45:28.892Z,4.28
2022-11-05T01:48:07.088Z,4.43
2022-11-05T01:50:47.630Z,4.45
2022-11-05T01:53:38.633Z,4.68
2022-11-05T01:56:28.783Z,3.88
2022-11-05T01:59:27.221Z,4.20
2022-11-05T02:01:55.064Z,4.45
2022-11-05T02:04:54.679Z,4.68
2022-11-05T02:07:24.997Z,4.55
2022-11-05T02:10:10.106Z,4.45
2022-11-05T02:12:39.516Z,4.20
2022-11-05T02:15:07.292Z,4.10
2022-11-05T02:17:51.703Z,4.75
2022-11-05T02:20:58.656Z,3.67
2022-11-05T02:23:40.914Z,4.50
2022-11-05T02:26:51.865Z,4.43
2022-11-05T02:29:47.114Z,4.13
2022-11-05T02:32:32.700Z,4.22
2022-11-05T02:35:32.163Z,3.55
2022-11-05T02:38:09.464Z,4.10
2022-11-05T02:41:01.507Z,3.58
2022-11-05T02:43:47.294Z,3.83
2022-11-05T02:46:45.772Z,4.20
2022-11-05T02:49:53.327Z,3.92
2022-11-05T02:52:40.707Z,4.05
2022-11-05T02:55:22.166Z,4.63
2022-11-05T02:57:49.305Z,4.40
2022-11-05T03:00:35.151Z,4.63
2022-11-05T03:03:03.448Z,5.10
2022-11-05T03:05:48.332Z,5.00
2022-11-05T03:08:55.370Z,4.68
2022-11-05T03:11:26.542Z,5.30
2022-11-05T03:14:39.813Z,5.47
2022-11-05T03:17:25.958Z,4.80
2022-11-05T03:20:10.652Z,6.83
2022-11-05T03:22:59.549Z,5.72
2022-11-05T03:25:29.430Z,5.78
2022-11-05T03:28:03.748Z,6.18
2022-11-05T03:30:33.934Z,6.05
2022-11-05T03:33:11.340Z,5.10
2022-11-05T03:35:47.340Z,5.32
2022-11-05T03:38:22.095Z,5.80
2022-11-05T03:40:54.364Z,5.50
2022-11-05T03:43:27.520Z,6.43
2022-11-05T03:46:03.708Z,5.97
2022-11-05T03:48:32.657Z,5.32
2022-11-05T03:51:32.319Z,5.50
2022-11-05T03:54:03.147Z,4.90
2022-11-05T03:57:15.334Z,5.20
2022-11-05T03:59:49.037Z,5.07
2022-11-05T04:02:19.589Z,5.30
2022-11-05T04:04:47.175Z,5.03
2022-11-05T04:07:33.114Z,5.38
2022-11-05T04:10:18.619Z,5.20
2022-11-05T04:13:04.179Z,4.85
2022-11-05T04:15:31.327Z,5.50
2022-11-05T04:17:58.996Z,5.75
2022-11-05T04:20:45.638Z,5.18
2022-11-05T04:23:31.047Z,5.38
2022-11-05T04:25:58.106Z,5.78
2022-11-05T04:28:44.856Z,5.57
2022-11-05T04:31:11.914Z,7.78
2022-11-05T04:33:38.703Z,7.10
2022-11-05T04:36:06.023Z,7.55
2022-11-05T04:38:32.876Z,7.15
2022-11-05T04:41:16.606Z,6.47
2022-11-05T04:43:44.305Z,6.60
2022-11-05T04:46:11.382Z,6.53
2022-11-05T04:48:38.437Z,5.78
2022-11-05T04:51:05.686Z,6.47
2022-11-05T04:53:32.671Z,7.45
2022-11-05T04:56:29.260Z,6.38
2022-11-05T04:58:56.180Z,6.60
2022-11-05T05:01:25.422Z,5.68
2022-11-05T05:03:54.301Z,6.10
2022-11-05T05:06:21.618Z,5.22
2022-11-05T05:08:50.624Z,5.55
2022-11-05T05:11:20.935Z,5.50
2022-11-05T05:13:48.875Z,5.78
2022-11-05T05:16:21.857Z,5.15
2022-11-05T05:18:49.354Z,5.10
2022-11-05T05:21:37.462Z,5.07
2022-11-05T05:24:17.304Z,4.75
2022-11-05T05:26:49.928Z,4.75
2022-11-05T05:29:18.123Z,4.70
2022-11-05T05:31:45.163Z,4.38
2022-11-05T05:34:14.350Z,5.43
2022-11-05T05:36:41.432Z,4.68
2022-11-05T05:39:10.889Z,4.63
2022-11-05T05:41:37.954Z,4.60
2022-11-05T05:44:06.277Z,5.40
2022-11-05T05:46:33.591Z,4.78
2022-11-05T05:49:00.937Z,5.05
2022-11-05T05:51:27.841Z,4.95
2022-11-05T05:53:54.861Z,4.95
2022-11-05T05:56:22.281Z,4.70
2022-11-05T05:58:49.266Z,4.95
2022-11-05T06:01:19.560Z,6.80
2022-11-05T06:03:48.364Z,4.65
2022-11-05T06:06:19.932Z,4.65
2022-11-05T06:08:48.888Z,4.40
2022-11-05T06:11:16.207Z,3.70
2022-11-05T06:13:43.113Z,4.10
2022-11-05T06:16:10.542Z,3.95
2022-11-05T06:18:37.820Z,3.97
2022-11-05T06:21:07.776Z,4.47
2022-11-05T06:23:37.569Z,6.38
2022-11-05T06:26:07.709Z,4.43
2022-11-05T06:28:34.822Z,4.10
2022-11-05T06:31:02.013Z,4.18
2022-11-05T06:33:28.915Z,3.95
2022-11-05T06:35:59.626Z,4.82
2022-11-05T06:38:27.075Z,5.38
2022-11-05T06:40:53.873Z,3.95
2022-11-05T06:43:20.840Z,4.32
2022-11-05T06:45:47.776Z,5.22
2022-11-05T06:48:14.696Z,4.63
2022-11-05T06:50:45.225Z,4.88
2022-11-05T06:53:13.551Z,4.78
2022-11-05T06:55:40.971Z,4.63
2022-11-05T06:58:07.966Z,4.00
2022-11-05T07:00:35.162Z,4.22
2022-11-05T07:03:06.747Z,4.45
2022-11-05T07:05:38.089Z,4.05
2022-11-05T07:08:05.342Z,4.35
2022-11-05T07:10:32.379Z,4.60
2022-11-05T07:13:07.848Z,5.03
2022-11-05T07:15:35.682Z,4.47
2022-11-05T07:18:03.164Z,4.30
2022-11-05T07:20:33.837Z,4.82
2022-11-05T07:23:08.814Z,4.45
2022-11-05T07:25:36.385Z,5.70
2022-11-05T07:28:04.509Z,6.15
2022-11-05T07:30:33.400Z,4.63
2022-11-05T07:33:00.292Z,5.22
2022-11-05T07:35:28.047Z,3.88
2022-11-05T07:37:55.848Z,4.75
2022-11-05T07:40:26.331Z,4.00
2022-11-05T07:43:00.100Z,4.43
2022-11-05T07:45:30.355Z,4.90
2022-11-05T07:48:03.208Z,5.03
2022-11-05T07:50:34.289Z,4.50
2022-11-05T07:53:11.272Z,3.83
2022-11-05T07:55:40.389Z,4.07
2022-11-05T07:58:07.478Z,4.22
2022-11-05T08:00:34.829Z,4.03
2022-11-05T08:03:14.669Z,4.90
2022-11-05T08:05:45.983Z,4.35
2022-11-05T08:08:18.635Z,3.78
2022-11-05T08:10:46.749Z,4.00
2022-11-05T08:13:14.696Z,3.72
2022-11-05T08:15:42.803Z,4.80
2022-11-05T08:18:17.859Z,3.80
2022-11-05T08:20:46.419Z,3.40
2022-11-05T08:23:14.108Z,3.85
2022-11-05T08:25:42.115Z,4.05
2022-11-05T08:28:12.228Z,3.80
2022-11-05T08:30:39.786Z,3.83
2022-11-05T08:33:11.387Z,3.63
2022-11-05T08:35:39.362Z,3.97
2022-11-05T08:38:08.998Z,3.28
2022-11-05T08:40:37.743Z,4.10
2022-11-05T08:43:06.929Z,3.67
2022-11-05T08:45:38.328Z,3.78
2022-11-05T08:48:17.526Z,3.35
2022-11-05T08:50:47.637Z,3.60
2022-11-05T08:53:16.029Z,3.53
2022-11-05T08:55:44.192Z,4.10
2022-11-05T08:58:15.258Z,4.13
2022-11-05T09:00:43.849Z,3.63
2022-11-05T09:03:11.614Z,4.00
2022-11-05T09:05:41.192Z,4.47
2022-11-05T09:08:14.804Z,3.92
2022-11-05T09:10:42.854Z,4.13
2022-11-05T09:13:17.827Z,3.67
2022-11-05T09:15:50.243Z,3.80
2022-11-05T09:18:18.517Z,3.47
2022-11-05T09:20:45.819Z,3.72
2022-11-05T09:23:16.925Z,4.30
2022-11-05T09:25:44.696Z,3.72
2022-11-05T09:28:21.706Z,3.80
2022-11-05T09:30:51.588Z,3.50
2022-11-05T09:33:23.240Z,3.50
2022-11-05T09:35:50.407Z,3.40
2022-11-05T09:38:17.390Z,3.78
2022-11-05T09:41:27.520Z,3.60
2022-11-05T09:44:01.801Z,3.92
2022-11-05T09:46:42.098Z,3.22
2022-11-05T09:49:24.440Z,3.45
2022-11-05T09:51:54.806Z,4.18
2022-11-05T09:54:31.466Z,3.17
2022-11-05T09:57:02.631Z,3.55
2022-11-05T09:59:41.309Z,3.30
2022-11-05T10:02:32.635Z,3.58
2022-11-05T10:05:13.120Z,3.17
2022-11-05T10:07:49.058Z,2.83
2022-11-05T10:10:41.111Z,2.65
2022-11-05T10:13:49.025Z,2.55
2022-11-05T10:16:35.851Z,2.28
2022-11-05T10:19:14.944Z,2.60
2022-11-05T10:22:05.420Z,2.38
2022-11-05T10:24:29.355Z,2.80
2022-11-05T10:26:57.034Z,3.00
2022-11-05T10:29:33.392Z,2.35
2022-11-05T10:34:34.047Z,2.25
2022-11-05T10:37:01.201Z,2.15
2022-11-05T10:39:31.352Z,2.03
2022-11-05T10:42:05.167Z,2.08
2022-11-05T10:45:16.014Z,1.65
2022-11-05T10:48:17.111Z,2.20
2022-11-05T10:50:44.479Z,2.67
2022-11-05T10:53:19.572Z,1.98
2022-11-05T10:55:49.566Z,2.38
2022-11-05T10:58:16.422Z,2.05
2022-11-05T11:00:52.475Z,1.88
2022-11-05T11:03:45.056Z,2.05
2022-11-05T11:06:29.131Z,2.00
2022-11-05T11:09:00.041Z,1.98
2022-11-05T11:11:40.838Z,1.92
2022-11-05T11:14:13.942Z,1.85
2022-11-05T11:16:57.285Z,1.75
2022-11-05T11:19:35.788Z,1.50
2022-11-05T11:22:05.677Z,1.80
2022-11-05T11:24:43.319Z,2.10
2022-11-05T11:27:16.303Z,1.85
2022-11-05T11:29:50.788Z,2.20
2022-11-05T11:32:21.089Z,1.90
2022-11-05T11:34:52.868Z,2.03
2022-11-05T11:37:29.560Z,1.80
2022-11-05T11:40:04.281Z,1.80
2022-11-05T11:42:35.880Z,1.67
2022-11-05T11:45:44.539Z,1.73
2022-11-05T11:48:22.850Z,1.92
2022-11-05T11:50:50.223Z,1.65
2022-11-05T11:53:20.099Z,1.52
2022-11-05T11:56:06.518Z,1.80
2022-11-05T11:58:58.091Z,1.58
2022-11-05T12:02:06.044Z,1.50
2022-11-05T12:05:05.667Z,1.52
2022-11-05T12:07:49.794Z,1.80
2022-11-05T12:10:42.276Z,1.92
2022-11-05T12:13:48.410Z,1.80
2022-11-05T12:16:43.329Z,1.45
2022-11-05T12:19:28.357Z,1.67
2022-11-05T12:22:04.195Z,1.40
2022-11-05T12:25:02.602Z,1.35
2022-11-05T12:27:43.134Z,1.33
2022-11-05T12:30:20.717Z,1.05
2022-11-05T12:33:21.559Z,1.60
2022-11-05T12:36:03.869Z,1.17
2022-11-05T12:39:20.175Z,1.38
2022-11-05T12:42:14.377Z,1.35
2022-11-05T12:45:01.825Z,1.50
2022-11-05T12:48:07.883Z,0.98
2022-11-05T12:50:53.592Z,0.93
2022-11-05T12:54:01.276Z,1.10
2022-11-05T12:59:21.292Z,1.00
2022-11-05T13:02:16.333Z,1.10
2022-11-05T13:05:13.344Z,1.15
2022-11-05T13:07:49.487Z,1.40
2022-11-05T13:10:30.978Z,1.40
2022-11-05T13:13:24.408Z,1.33
2022-11-05T13:16:04.109Z,1.05
2022-11-05T13:18:54.916Z,1.20
2022-11-05T13:21:25.492Z,1.40
2022-11-05T13:24:17.155Z,1.33
2022-11-05T13:26:55.210Z,1.20
2022-11-05T13:29:48.638Z,1.33
2022-11-05T13:32:24.746Z,1.83
2022-11-05T13:34:55.786Z,1.48
2022-11-05T13:37:50.541Z,1.77
2022-11-05T13:40:25.501Z,1.60
2022-11-05T13:43:13.289Z,1.40
2022-11-05T13:46:19.314Z,1.52
2022-11-05T13:48:55.241Z,1.90
2022-11-05T13:51:43.959Z,1.38
2022-11-05T13:54:59.120Z,1.58
2022-11-05T13:57:50.173Z,1.80
2022-11-05T14:00:21.683Z,1.42
2022-11-05T14:03:02.039Z,1.17
2022-11-05T14:05:37.535Z,1.60
2022-11-05T14:08:17.682Z,1.60
2022-11-05T14:11:07.813Z,2.55
2022-11-05T14:13:39.647Z,1.45
2022-11-05T14:16:09.059Z,1.75
2022-11-05T14:18:47.403Z,1.35
2022-11-05T14:21:47.998Z,1.20
2022-11-05T14:24:28.347Z,1.73
2022-11-05T14:27:01.590Z,1.48
2022-11-05T14:29:44.013Z,1.50
2022-11-05T14:32:17.157Z,2.30
2022-11-05T14:35:14.065Z,1.55
2022-11-05T14:37:52.115Z,1.50
2022-11-05T14:40:21.891Z,1.30
2022-11-05T14:42:57.994Z,1.88
2022-11-05T14:45:41.022Z,1.80
2022-11-05T14:48:38.859Z,1.50
2022-11-05T14:51:33.329Z,1.70
2022-11-05T14:54:24.495Z,1.40
2022-11-05T14:56:56.400Z,1.85
2022-11-05T14:59:32.022Z,1.60
2022-11-05T15:02:14.471Z,1.90
2022-11-05T15:04:48.126Z,1.73
2022-11-05T15:07:24.243Z,1.42
2022-11-05T15:10:14.119Z,2.15
2022-11-05T15:12:54.453Z,1.60
2022-11-05T15:15:29.749Z,1.90
2022-11-05T15:18:27.326Z,1.45
2022-11-05T15:23:29.983Z,1.60
2022-11-05T15:26:29.849Z,1.50
2022-11-05T15:28:57.258Z,1.80
2022-11-05T15:31:45.423Z,1.77
2022-11-05T15:34:35.805Z,1.75
2022-11-05T15:37:27.254Z,1.52
2022-11-05T15:39:55.529Z,1.80
2022-11-05T15:42:25.745Z,2.00
2022-11-05T15:44:57.644Z,2.20
2022-11-05T15:47:28.328Z,2.80
2022-11-05T15:50:09.995Z,2.67
2022-11-05T15:52:50.279Z,3.72
2022-11-05T15:55:23.883Z,4.68
2022-11-05T15:58:05.231Z,4.25
2022-11-05T16:00:36.589Z,4.03
2022-11-05T16:03:17.550Z,3.92
2022-11-05T16:05:47.695Z,2.97
2022-11-05T16:08:26.284Z,3.35
2022-11-05T16:11:00.041Z,4.20
2022-11-05T16:13:39.255Z,4.43
2022-11-05T16:16:13.365Z,4.53
2022-11-05T16:18:41.057Z,4.20
2022-11-05T16:21:18.844Z,3.72
2022-11-05T16:23:48.490Z,5.75
2022-11-05T16:29:37.820Z,6.60
2022-11-05T16:32:16.191Z,5.78
2022-11-05T16:34:48.590Z,4.85
2022-11-05T16:37:20.866Z,4.75
2022-11-05T16:39:48.313Z,5.25
2022-11-05T16:42:35.060Z,5.50
2022-11-05T16:45:01.973Z,4.63
2022-11-05T16:47:31.030Z,4.35
2022-11-05T16:49:58.493Z,5.68
2022-11-05T16:52:25.545Z,5.03
2022-11-05T16:54:52.473Z,5.95
2022-11-05T16:57:26.942Z,6.35
2022-11-05T16:59:59.391Z,7.25
2022-11-05T17:02:26.837Z,9.15
2022-11-05T17:04:53.845Z,9.60
2022-11-05T17:07:21.015Z,10.32
2022-11-05T17:09:48.135Z,9.70
2022-11-05T17:12:16.247Z,9.80
2022-11-05T17:14:43.206Z,9.52
2022-11-05T17:17:11.135Z,9.25
2022-11-05T17:19:42.165Z,8.70
2022-11-05T17:22:09.253Z,8.25
2022-11-05T17:24:36.432Z,8.63
2022-11-05T17:27:03.771Z,8.88
2022-11-05T17:29:30.814Z,7.60
2022-11-05T17:31:58.128Z,8.30
2022-11-05T17:34:24.962Z,7.70
2022-11-05T17:36:51.955Z,8.68
2022-11-05T17:39:18.839Z,6.53
2022-11-05T17:41:46.114Z,7.85
2022-11-05T17:44:12.989Z,8.95
2022-11-05T17:46:40.622Z,7.78
2022-11-05T17:49:07.439Z,7.82
2022-11-05T17:51:34.837Z,7.65
2022-11-05T17:54:01.945Z,8.10
2022-11-05T17:56:34.440Z,8.13
2022-11-05T17:59:03.443Z,7.35
2022-11-05T18:01:33.955Z,8.18
2022-11-05T18:04:07.127Z,8.00
2022-11-05T18:06:38.279Z,7.85
2022-11-05T18:09:06.913Z,7.75
2022-11-05T18:11:35.255Z,8.38
2022-11-05T18:14:03.123Z,7.97
2022-11-05T18:16:30.418Z,7.60
2022-11-05T18:18:57.600Z,7.22
2022-11-05T18:21:25.035Z,8.10
2022-11-05T18:23:52.867Z,7.85
2022-11-05T18:26:19.917Z,7.75
2022-11-05T18:28:46.812Z,7.90
2022-11-05T18:31:18.576Z,7.90
2022-11-05T18:33:46.846Z,8.27
2022-11-05T18:36:23.531Z,8.45
2022-11-05T18:38:51.478Z,7.90
2022-11-05T18:41:20.028Z,7.88
2022-11-05T18:43:47.697Z,7.60
2022-11-05T18:46:29.672Z,8.55
2022-11-05T18:49:03.078Z,6.88
2022-11-05T18:51:30.492Z,7.13
2022-11-05T18:53:58.298Z,7.40
2022-11-05T18:56:25.179Z,8.27
2022-11-05T18:59:14.608Z,7.57
2022-11-05T19:01:41.840Z,8.15
2022-11-05T19:04:09.497Z,8.45
2022-11-05T19:06:38.822Z,7.78
2022-11-05T19:09:08.867Z,8.15
2022-11-05T19:11:36.513Z,9.05
2022-11-05T19:14:03.422Z,8.57
2022-11-05T19:16:31.434Z,8.50
2022-11-05T19:19:00.501Z,10.38
2022-11-05T19:21:27.955Z,8.82
2022-11-05T19:24:00.401Z,8.23
2022-11-05T19:26:29.049Z,7.45
2022-11-05T19:28:59.021Z,8.48
2022-11-05T19:31:27.581Z,7.88
2022-11-05T19:33:54.791Z,8.13
2022-11-05T19:36:24.070Z,8.63
2022-11-05T19:39:01.026Z,8.20
2022-11-05T19:41:28.397Z,9.77
2022-11-05T19:43:57.871Z,9.50
2022-11-05T19:46:25.697Z,9.45
2022-11-05T19:48:52.890Z,10.80
2022-11-05T19:51:29.627Z,10.02
2022-11-05T19:56:29.983Z,7.97
2022-11-05T19:58:58.265Z,9.75
2022-11-05T20:01:27.630Z,9.57
2022-11-05T20:03:57.154Z,10.82
2022-11-05T20:06:30.741Z,10.55
2022-11-05T20:11:49.274Z,11.27
2022-11-05T20:14:16.624Z,13.75
2022-11-05T20:16:45.010Z,11.30
2022-11-05T20:19:17.457Z,11.27
2022-11-05T20:21:45.114Z,10.82
2022-11-05T20:24:17.484Z,10.50
2022-11-05T20:26:49.655Z,10.68
2022-11-05T20:29:16.490Z,11.25
2022-11-05T20:31:43.363Z,13.55
2022-11-05T20:34:10.546Z,15.80
2022-11-05T20:36:38.698Z,15.00
2022-11-05T20:39:05.852Z,13.07
2022-11-05T20:41:33.243Z,15.13
2022-11-05T20:44:00.280Z,12.57
2022-11-05T20:46:27.670Z,13.32
2022-11-05T20:48:54.970Z,14.52
2022-11-05T20:51:24.246Z,17.60
2022-11-05T20:54:01.218Z,20.25
2022-11-05T20:56:31.688Z,19.52
2022-11-05T20:59:00.531Z,15.88
2022-11-05T21:01:33.918Z,15.65
2022-11-05T21:04:02.769Z,15.68
2022-11-05T21:06:30.342Z,15.40
2022-11-05T21:08:57.527Z,13.90
2022-11-05T21:11:24.486Z,14.80
2022-11-05T21:13:51.645Z,24.05
2022-11-05T21:16:19.884Z,25.08
2022-11-05T21:18:47.719Z,22.20
2022-11-05T21:21:19.374Z,22.90
2022-11-05T21:23:46.590Z,21.38
2022-11-05T21:26:15.229Z,17.65
2022-11-05T21:28:42.907Z,18.30
2022-11-05T21:31:10.892Z,20.52
2022-11-05T21:33:38.425Z,19.77
2022-11-05T21:36:12.166Z,17.48
2022-11-05T21:38:40.584Z,16.45
2022-11-05T21:41:08.757Z,16.77
2022-11-05T21:43:38.327Z,17.30
2022-11-05T21:46:05.488Z,16.70
2022-11-05T21:48:33.064Z,16.58
2022-11-05T21:51:18.708Z,17.35
2022-11-05T21:54:04.019Z,17.48
2022-11-05T21:56:50.096Z,19.77
2022-11-05T21:59:40.422Z,19.20
2022-11-05T22:02:11.405Z,17.63
2022-11-05T22:04:47.771Z,18.17
2022-11-05T22:07:17.784Z,18.40
2022-11-05T22:09:44.828Z,19.38
2022-11-05T22:12:12.068Z,18.70
2022-11-05T22:14:39.574Z,17.98
2022-11-05T22:17:08.320Z,18.85
2022-11-05T22:19:35.576Z,20.10
2022-11-05T22:22:05.195Z,20.25
2022-11-05T22:24:33.893Z,19.42
2022-11-05T22:27:04.386Z,21.65
2022-11-05T22:29:31.464Z,21.05
2022-11-05T22:31:58.350Z,20.40
2022-11-05T22:34:25.931Z,19.30
2022-11-05T22:36:53.977Z,20.90
2022-11-05T22:39:21.095Z,19.30
2022-11-05T22:41:48.756Z,19.90
2022-11-05T22:44:17.266Z,18.75
2022-11-05T22:46:44.459Z,17.50
2022-11-05T22:49:11.794Z,17.40
2022-11-05T22:51:39.844Z,15.90
2022-11-05T22:54:08.063Z,12.88
2022-11-05T22:56:40.034Z,14.80
2022-11-05T22:59:10.696Z,15.50
2022-11-05T23:01:37.630Z,15.20
2022-11-05T23:04:05.087Z,14.30
2022-11-05T23:06:52.070Z,14.05
2022-11-05T23:09:42.123Z,12.25
2022-11-05T23:12:35.386Z,12.25
2022-11-05T23:15:05.951Z,11.95
2022-11-05T23:17:51.927Z,11.30
2022-11-05T23:20:41.461Z,8.93
2022-11-05T23:23:31.315Z,9.88
2022-11-05T23:26:00.119Z,9.38
2022-11-05T23:28:27.135Z,9.95
2022-11-05T23:31:13.815Z,8.57
2022-11-05T23:33:40.651Z,8.07
2022-11-05T23:36:31.719Z,7.75
2022-11-05T23:38:58.831Z,8.85
2022-11-05T23:41:44.296Z,7.55
2022-11-05T23:44:29.615Z,7.65
2022-11-05T23:47:15.206Z,8.55
2022-11-05T23:49:42.120Z,10.35
2022-11-05T23:52:08.946Z,9.10
2022-11-05T23:54:36.303Z,11.00
2022-11-05T23:57:03.154Z,10.70
2022-11-05T23:59:30.214Z,9.10
